Terminal Aerodrome Forecast
Issued by NWS

Home | Current Version | Previous Version | Text Only | Print | Product List | Glossary On
Versions: 1 2 3 4 5 6 7 8 9 10 11 12 13 14 15
863
FTPA31 PHFO 221131
TAFHTO
TAF
PHTO 221131Z 2212/2312 05012G22KT P6SM VCSH FEW015 SCT025 BKN040
     FM221500 05015G25KT 5SM -SHRA BR SCT009 BKN018 OVC035
     FM230200 04010KT P6SM VCSH SCT015 BKN025 OVC040=

USA.gov is the U.S. government's official web portal to all federal, state and local government web resources and services.